createdAt,value
2022-12-18T00:01:07.141Z,-3.73
2022-12-18T00:03:37.341Z,-3.36
2022-12-18T00:06:04.177Z,-3.37
2022-12-18T00:08:30.683Z,-3.19
2022-12-18T00:11:04.545Z,-3.09
2022-12-18T00:13:33.785Z,-3.14
2022-12-18T00:16:05.189Z,-3.34
2022-12-18T00:18:31.967Z,-3.32
2022-12-18T00:21:03.791Z,-3.79
2022-12-18T00:23:30.934Z,-3.68
2022-12-18T00:26:05.340Z,-3.87
2022-12-18T00:28:31.876Z,-4.24
2022-12-18T00:31:07.016Z,-4.30
2022-12-18T00:33:34.121Z,-4.27
2022-12-18T00:36:22.719Z,-4.23
2022-12-18T00:38:49.935Z,-4.15
2022-12-18T00:41:44.327Z,-4.04
2022-12-18T00:44:13.826Z,-4.29
2022-12-18T00:46:40.343Z,-4.13
2022-12-18T00:49:07.225Z,-3.97
2022-12-18T00:51:33.679Z,-4.18
2022-12-18T00:54:00.080Z,-3.84
2022-12-18T00:56:26.653Z,-3.66
2022-12-18T00:58:53.660Z,-4.40
2022-12-18T01:01:20.801Z,-4.58
2022-12-18T01:03:47.631Z,-4.32
2022-12-18T01:06:15.605Z,-4.03
2022-12-18T01:08:42.252Z,-4.61
2022-12-18T01:11:10.945Z,-5.33
2022-12-18T01:13:37.613Z,-4.86
2022-12-18T01:16:04.598Z,-4.78
2022-12-18T01:18:31.185Z,-4.43
2022-12-18T01:20:57.756Z,-4.78
2022-12-18T01:23:26.984Z,-4.62
2022-12-18T01:25:53.510Z,-4.62
2022-12-18T01:28:19.924Z,-4.79
2022-12-18T01:30:46.384Z,-4.88
2022-12-18T01:33:12.788Z,-5.06
2022-12-18T01:35:43.446Z,-4.96
2022-12-18T01:38:10.537Z,-4.72
2022-12-18T01:40:37.496Z,-4.49
2022-12-18T01:43:03.996Z,-4.60
2022-12-18T01:45:33.041Z,-4.50
2022-12-18T01:48:07.020Z,-4.74
2022-12-18T01:50:39.095Z,-4.41
2022-12-18T01:53:14.051Z,-4.77
2022-12-18T01:55:49.006Z,-4.62
2022-12-18T01:58:16.131Z,-4.57
2022-12-18T02:00:42.833Z,-4.40
2022-12-18T02:03:09.697Z,-4.86
2022-12-18T02:05:51.180Z,-5.01
2022-12-18T02:08:26.758Z,-5.01
2022-12-18T02:11:08.368Z,-4.67
2022-12-18T02:13:53.114Z,-4.90
2022-12-18T02:16:30.373Z,-4.84
2022-12-18T02:19:00.279Z,-4.88
2022-12-18T02:21:42.071Z,-4.90
2022-12-18T02:24:54.998Z,-4.65
2022-12-18T02:27:21.448Z,-5.06
2022-12-18T02:29:58.932Z,-5.10
2022-12-18T02:32:40.234Z,-5.13
2022-12-18T02:35:09.620Z,-5.18
2022-12-18T02:37:38.047Z,-5.35
2022-12-18T02:40:05.719Z,-4.82
2022-12-18T02:42:33.349Z,-4.62
2022-12-18T02:44:59.913Z,-4.72
2022-12-18T02:47:33.706Z,-4.85
2022-12-18T02:50:15.425Z,-4.44
2022-12-18T02:52:47.910Z,-4.75
2022-12-18T02:55:27.763Z,-4.61
2022-12-18T02:57:56.142Z,-4.66
2022-12-18T03:00:32.703Z,-4.80
2022-12-18T03:03:03.010Z,-4.52
2022-12-18T03:05:39.605Z,-4.50
2022-12-18T03:08:16.516Z,-4.69
2022-12-18T03:10:58.995Z,-4.89
2022-12-18T03:13:40.728Z,-4.41
2022-12-18T03:16:11.967Z,-4.45
2022-12-18T03:18:51.480Z,-4.71
2022-12-18T03:21:23.179Z,-4.80
2022-12-18T03:23:53.220Z,-4.63
2022-12-18T03:26:23.253Z,-4.74
2022-12-18T03:28:58.480Z,-5.11
2022-12-18T03:31:28.660Z,-4.81
2022-12-18T03:33:58.728Z,-4.67
2022-12-18T03:36:25.978Z,-4.39
2022-12-18T03:38:52.638Z,-4.39
2022-12-18T03:41:29.570Z,-4.57
2022-12-18T03:44:16.908Z,-4.71
2022-12-18T03:46:57.218Z,-4.38
2022-12-18T03:49:31.251Z,-4.79
2022-12-18T03:52:10.643Z,-4.40
2022-12-18T03:54:38.218Z,-4.43
2022-12-18T03:57:12.895Z,-4.39
2022-12-18T03:59:40.951Z,-4.50
2022-12-18T04:02:09.468Z,-4.72
2022-12-18T04:04:39.452Z,-5.10
2022-12-18T04:07:07.104Z,-5.21
2022-12-18T04:09:35.094Z,-5.08
2022-12-18T04:12:01.674Z,-5.32
2022-12-18T04:14:28.126Z,-5.19
2022-12-18T04:16:57.611Z,-5.10
2022-12-18T04:19:24.104Z,-4.81
2022-12-18T04:21:50.519Z,-4.74
2022-12-18T04:24:16.962Z,-4.82
2022-12-18T04:26:43.382Z,-4.89
2022-12-18T04:29:09.853Z,-5.18
2022-12-18T04:31:36.278Z,-5.09
2022-12-18T04:34:02.768Z,-5.06
2022-12-18T04:36:29.154Z,-4.82
2022-12-18T04:38:55.854Z,-4.99
2022-12-18T04:41:22.616Z,-5.03
2022-12-18T04:43:49.064Z,-4.90
2022-12-18T04:46:15.766Z,-4.90
2022-12-18T04:48:42.290Z,-5.28
2022-12-18T04:51:08.754Z,-5.48
2022-12-18T04:53:35.400Z,-5.37
2022-12-18T04:56:11.365Z,-5.39
2022-12-18T04:58:40.012Z,-5.22
2022-12-18T05:01:08.363Z,-5.49
2022-12-18T05:03:36.095Z,-5.47
2022-12-18T05:06:03.386Z,-5.07
2022-12-18T05:08:29.862Z,-5.16
2022-12-18T05:11:04.523Z,-5.21
2022-12-18T05:13:33.036Z,-5.33
2022-12-18T05:15:59.678Z,-5.17
2022-12-18T05:18:26.707Z,-5.47
2022-12-18T05:20:54.192Z,-4.96
2022-12-18T05:23:21.955Z,-4.76
2022-12-18T05:25:56.913Z,-4.61
2022-12-18T05:28:25.876Z,-4.78
2022-12-18T05:30:57.975Z,-4.76
2022-12-18T05:33:26.095Z,-4.86
2022-12-18T05:35:58.273Z,-4.93
2022-12-18T05:38:27.052Z,-5.01
2022-12-18T05:40:54.028Z,-5.76
2022-12-18T05:43:22.557Z,-5.66
2022-12-18T05:45:49.924Z,-5.76
2022-12-18T05:48:16.890Z,-5.73
2022-12-18T05:50:48.510Z,-5.31
2022-12-18T05:53:17.474Z,-5.42
2022-12-18T05:55:44.877Z,-5.91
2022-12-18T05:58:12.615Z,-5.87
2022-12-18T06:00:41.244Z,-5.76
2022-12-18T06:03:09.591Z,-5.92
2022-12-18T06:05:38.225Z,-6.03
2022-12-18T06:08:05.348Z,-5.52
2022-12-18T06:10:32.049Z,-5.87
2022-12-18T06:12:58.472Z,-5.62
2022-12-18T06:15:25.427Z,-5.98
2022-12-18T06:17:51.846Z,-6.11
2022-12-18T06:20:18.406Z,-6.27
2022-12-18T06:22:44.819Z,-5.98
2022-12-18T06:25:11.777Z,-5.68
2022-12-18T06:27:38.266Z,-5.94
2022-12-18T06:30:05.810Z,-6.03
2022-12-18T06:32:32.209Z,-5.77
2022-12-18T06:34:58.608Z,-5.79
2022-12-18T06:37:28.024Z,-6.23
2022-12-18T06:39:54.947Z,-6.22
2022-12-18T06:42:24.212Z,-5.80
2022-12-18T06:44:51.001Z,-6.08
2022-12-18T06:47:17.451Z,-5.64
2022-12-18T06:49:44.083Z,-5.83
2022-12-18T06:52:10.503Z,-6.16
2022-12-18T06:54:36.905Z,-5.54
2022-12-18T06:57:03.331Z,-5.81
2022-12-18T06:59:30.086Z,-5.68
2022-12-18T07:01:56.644Z,-5.53
2022-12-18T07:04:23.207Z,-5.91
2022-12-18T07:06:49.816Z,-5.67
2022-12-18T07:09:16.247Z,-5.52
2022-12-18T07:11:42.641Z,-5.44
2022-12-18T07:14:09.053Z,-5.47
2022-12-18T07:16:35.542Z,-5.79
2022-12-18T07:19:01.984Z,-5.66
2022-12-18T07:21:28.592Z,-5.37
2022-12-18T07:23:55.012Z,-5.24
2022-12-18T07:26:22.807Z,-5.53
2022-12-18T07:28:49.990Z,-5.44
2022-12-18T07:31:19.508Z,-5.03
2022-12-18T07:33:48.768Z,-4.69
2022-12-18T07:36:15.538Z,-4.79
2022-12-18T07:38:42.249Z,-4.59
2022-12-18T07:41:11.213Z,-4.67
2022-12-18T07:43:38.850Z,-4.74
2022-12-18T07:46:06.546Z,-4.75
2022-12-18T07:48:33.230Z,-4.86
2022-12-18T07:51:05.495Z,-5.03
2022-12-18T07:53:33.568Z,-5.04
2022-12-18T07:56:26.600Z,-4.75
2022-12-18T07:58:49.348Z,-4.69
2022-12-18T08:01:15.906Z,-5.00
2022-12-18T08:03:43.038Z,-5.38
2022-12-18T08:06:10.581Z,-5.00
2022-12-18T08:08:37.841Z,-4.52
2022-12-18T08:11:04.408Z,-4.58
2022-12-18T08:13:30.872Z,-4.51
2022-12-18T08:15:59.182Z,-4.62
2022-12-18T08:18:26.340Z,-4.50
2022-12-18T08:20:52.817Z,-4.99
2022-12-18T08:23:19.287Z,-4.66
2022-12-18T08:25:45.704Z,-4.86
2022-12-18T08:28:12.239Z,-3.92
2022-12-18T08:30:38.804Z,-3.37
2022-12-18T08:33:05.338Z,-3.64
2022-12-18T08:35:38.807Z,-2.52
2022-12-18T08:38:07.569Z,-2.70
2022-12-18T08:40:34.115Z,-2.35
2022-12-18T08:43:19.036Z,-1.90
2022-12-18T08:45:45.432Z,-0.65
2022-12-18T08:48:11.938Z,-0.31
2022-12-18T08:50:38.350Z,0.36
2022-12-18T08:53:04.930Z,0.85
2022-12-18T08:55:31.402Z,1.68
2022-12-18T08:57:57.863Z,1.00
2022-12-18T09:00:24.427Z,0.85
2022-12-18T09:02:50.981Z,0.77
2022-12-18T09:05:17.503Z,0.78
2022-12-18T09:07:43.962Z,0.62
2022-12-18T09:10:11.270Z,2.34
2022-12-18T09:12:37.701Z,2.67
2022-12-18T09:15:04.643Z,3.38
2022-12-18T09:17:31.199Z,2.44
2022-12-18T09:19:57.706Z,2.18
2022-12-18T09:22:24.144Z,2.86
2022-12-18T09:24:50.567Z,1.97
2022-12-18T09:27:16.950Z,1.38
2022-12-18T09:29:43.513Z,1.29
2022-12-18T09:32:09.921Z,0.74
2022-12-18T09:34:36.390Z,0.73
2022-12-18T09:37:03.056Z,1.06
2022-12-18T09:39:29.473Z,0.55
2022-12-18T09:41:58.572Z,1.30
2022-12-18T09:44:33.627Z,1.80
2022-12-18T09:47:21.513Z,2.20
2022-12-18T09:49:51.666Z,1.22
2022-12-18T09:52:31.496Z,1.64
2022-12-18T09:55:02.541Z,0.30
2022-12-18T09:57:32.282Z,-0.64
2022-12-18T10:00:27.931Z,-0.66
2022-12-18T10:03:02.094Z,-0.90
2022-12-18T10:05:38.719Z,-1.07
2022-12-18T10:08:22.203Z,-1.03
2022-12-18T10:11:01.237Z,-1.28
2022-12-18T10:13:27.583Z,-1.27
2022-12-18T10:16:10.791Z,-1.68
2022-12-18T10:19:00.253Z,-1.77
2022-12-18T10:21:40.979Z,-1.53
2022-12-18T10:24:27.651Z,-1.20
2022-12-18T10:27:00.579Z,-1.79
2022-12-18T10:29:27.192Z,-1.83
2022-12-18T10:31:53.644Z,-1.39
2022-12-18T10:34:20.048Z,-0.76
2022-12-18T10:36:48.637Z,-0.99
2022-12-18T10:39:20.511Z,-0.56
2022-12-18T10:41:47.229Z,-0.82
2022-12-18T10:44:21.992Z,-0.84
2022-12-18T10:46:51.286Z,-1.02
2022-12-18T10:49:30.766Z,-0.96
2022-12-18T10:52:19.785Z,-1.17
2022-12-18T10:55:02.751Z,-1.51
2022-12-18T10:57:39.562Z,-1.39
2022-12-18T11:00:31.211Z,-1.44
2022-12-18T11:02:58.749Z,-1.25
2022-12-18T11:05:33.888Z,-0.89
2022-12-18T11:08:01.953Z,-0.82
2022-12-18T11:10:34.315Z,-0.73
2022-12-18T11:13:24.007Z,-0.48
2022-12-18T11:15:51.652Z,-0.55
2022-12-18T11:18:29.086Z,-0.58
2022-12-18T11:21:06.677Z,-0.01
2022-12-18T11:23:33.115Z,0.17
2022-12-18T11:26:05.749Z,-0.15
2022-12-18T11:28:38.614Z,0.14
2022-12-18T11:31:28.726Z,-0.37
2022-12-18T11:34:29.052Z,-0.16
2022-12-18T11:36:56.340Z,-0.05
2022-12-18T11:39:35.841Z,0.25
2022-12-18T11:42:25.122Z,0.03
2022-12-18T11:44:57.116Z,-0.66
2022-12-18T11:47:33.846Z,-0.08
2022-12-18T11:50:02.471Z,-0.03
2022-12-18T11:52:40.279Z,0.18
2022-12-18T11:55:25.649Z,-0.32
2022-12-18T11:58:09.818Z,-0.12
2022-12-18T12:00:44.578Z,0.05
2022-12-18T12:03:33.992Z,0.36
2022-12-18T12:06:09.368Z,0.02
2022-12-18T12:08:35.735Z,-0.10
2022-12-18T12:11:16.679Z,0.54
2022-12-18T12:13:49.244Z,0.30
2022-12-18T12:16:32.652Z,0.01
2022-12-18T12:19:17.150Z,0.21
2022-12-18T12:21:53.752Z,0.20
2022-12-18T12:24:26.315Z,0.10
2022-12-18T12:26:58.656Z,0.17
2022-12-18T12:29:53.092Z,0.66
2022-12-18T12:32:38.354Z,0.37
2022-12-18T12:35:34.029Z,0.22
2022-12-18T12:38:12.552Z,0.21
2022-12-18T12:40:53.761Z,0.41
2022-12-18T12:43:27.998Z,0.31
2022-12-18T12:46:04.231Z,0.19
2022-12-18T12:48:50.923Z,0.77
2022-12-18T12:51:21.232Z,0.76
2022-12-18T12:53:49.148Z,0.63
2022-12-18T12:56:18.863Z,0.41
2022-12-18T12:59:16.431Z,0.10
2022-12-18T13:01:53.699Z,0.31
2022-12-18T13:04:23.192Z,0.30
2022-12-18T13:07:11.591Z,0.45
2022-12-18T13:10:17.470Z,0.21
2022-12-18T13:12:57.406Z,0.81
2022-12-18T13:15:44.783Z,0.82
2022-12-18T13:18:21.684Z,1.21
2022-12-18T13:20:55.326Z,0.95
2022-12-18T13:23:24.899Z,0.67
2022-12-18T13:26:00.308Z,1.31
2022-12-18T13:28:48.900Z,0.95
2022-12-18T13:31:36.365Z,1.13
2022-12-18T13:34:27.713Z,1.16
2022-12-18T13:36:57.442Z,0.84
2022-12-18T13:39:35.336Z,0.66
2022-12-18T13:42:08.580Z,0.26
2022-12-18T13:44:44.270Z,-0.34
2022-12-18T13:47:29.607Z,0.04
2022-12-18T13:49:57.406Z,0.09
2022-12-18T13:52:34.270Z,0.68
2022-12-18T13:55:06.129Z,0.21
2022-12-18T13:57:35.553Z,0.42
2022-12-18T14:00:25.744Z,-0.17
2022-12-18T14:02:53.226Z,0.03
2022-12-18T14:05:39.380Z,-0.33
2022-12-18T14:08:12.464Z,-0.40
2022-12-18T14:10:48.720Z,-0.33
2022-12-18T14:13:39.197Z,-0.58
2022-12-18T14:16:08.379Z,-0.42
2022-12-18T14:18:58.554Z,-0.49
2022-12-18T14:21:33.441Z,-0.90
2022-12-18T14:24:19.520Z,-0.70
2022-12-18T14:26:47.707Z,-0.81
2022-12-18T14:29:26.419Z,-0.94
2022-12-18T14:32:05.444Z,-0.66
2022-12-18T14:34:31.858Z,-1.13
2022-12-18T14:36:58.237Z,-1.27
2022-12-18T14:39:26.335Z,-0.80
2022-12-18T14:41:54.061Z,-1.10
2022-12-18T14:44:22.257Z,-1.19
2022-12-18T14:46:51.588Z,-1.20
2022-12-18T14:49:20.643Z,-1.56
2022-12-18T14:51:54.129Z,-1.61
2022-12-18T14:54:22.577Z,-1.56
2022-12-18T14:57:01.956Z,-1.53
2022-12-18T14:59:30.359Z,-1.41
2022-12-18T15:02:12.125Z,-1.26
2022-12-18T15:04:42.993Z,-1.33
2022-12-18T15:07:19.360Z,-1.53
2022-12-18T15:10:11.629Z,-1.85
2022-12-18T15:12:42.548Z,-1.98
2022-12-18T15:15:33.762Z,-1.96
2022-12-18T15:18:13.662Z,-1.84
2022-12-18T15:21:08.369Z,-1.81
2022-12-18T15:23:52.728Z,-1.69
2022-12-18T15:26:21.758Z,-1.79
2022-12-18T15:28:53.824Z,-1.42
2022-12-18T15:31:30.344Z,-1.48
2022-12-18T15:33:56.823Z,-1.05
2022-12-18T15:36:26.456Z,-1.01
2022-12-18T15:38:54.908Z,-1.45
2022-12-18T15:41:24.899Z,-1.42
2022-12-18T15:43:53.330Z,-1.84
2022-12-18T15:46:22.792Z,-1.18
2022-12-18T15:48:59.753Z,-1.22
2022-12-18T15:51:36.625Z,-1.21
2022-12-18T15:54:06.094Z,-1.31
2022-12-18T15:56:51.421Z,-1.31
2022-12-18T15:59:20.031Z,-0.68
2022-12-18T16:01:49.218Z,-0.84
2022-12-18T16:04:17.967Z,-0.63
2022-12-18T16:07:13.258Z,-1.09
2022-12-18T16:09:30.850Z,-1.38
2022-12-18T16:11:57.251Z,-1.08
2022-12-18T16:14:28.633Z,-1.21
2022-12-18T16:16:57.810Z,-0.92
2022-12-18T16:19:25.096Z,-1.39
2022-12-18T16:21:54.056Z,-1.35
2022-12-18T16:24:24.509Z,-1.38
2022-12-18T16:26:54.948Z,-1.56
2022-12-18T16:29:27.947Z,-1.36
2022-12-18T16:31:59.566Z,-1.38
2022-12-18T16:34:34.867Z,-1.75
2022-12-18T16:37:07.390Z,-1.89
2022-12-18T16:39:38.087Z,-1.28
2022-12-18T16:42:09.579Z,-1.80
2022-12-18T16:44:36.372Z,-1.80
2022-12-18T16:47:04.257Z,-1.85
2022-12-18T16:49:31.315Z,-2.01
2022-12-18T16:51:57.858Z,-1.60
2022-12-18T16:54:24.903Z,-1.69
2022-12-18T16:56:52.147Z,-1.48
2022-12-18T16:59:18.891Z,-1.21
2022-12-18T17:01:46.756Z,-1.20
2022-12-18T17:04:13.749Z,-1.61
2022-12-18T17:06:42.700Z,-1.26
2022-12-18T17:09:14.113Z,-1.41
2022-12-18T17:11:40.740Z,-1.44
2022-12-18T17:14:08.880Z,-1.04
2022-12-18T17:16:35.780Z,-1.74
2022-12-18T17:19:03.071Z,-2.04
2022-12-18T17:21:29.542Z,-1.65
2022-12-18T17:23:56.217Z,-1.79
2022-12-18T17:26:22.688Z,-1.87
2022-12-18T17:28:49.056Z,-1.51
2022-12-18T17:31:23.460Z,-1.73
2022-12-18T17:33:50.484Z,-1.81
2022-12-18T17:36:17.372Z,-1.54
2022-12-18T17:38:50.376Z,-1.37
2022-12-18T17:41:17.053Z,-1.66
2022-12-18T17:43:45.786Z,-1.19
2022-12-18T17:46:14.689Z,-1.49
2022-12-18T17:48:41.520Z,-0.99
2022-12-18T17:51:09.653Z,-1.39
2022-12-18T17:53:41.774Z,-1.11
2022-12-18T17:56:12.815Z,-0.99
2022-12-18T17:58:40.042Z,-1.23
2022-12-18T18:01:07.421Z,-1.16
2022-12-18T18:03:34.732Z,-1.24
2022-12-18T18:06:02.475Z,-1.24
2022-12-18T18:08:28.977Z,-1.03
2022-12-18T18:10:55.823Z,-1.39
2022-12-18T18:13:47.174Z,-0.99
2022-12-18T18:16:13.983Z,-1.07
2022-12-18T18:18:40.587Z,-0.68
2022-12-18T18:21:10.056Z,-1.23
2022-12-18T18:23:37.066Z,-1.08
2022-12-18T18:26:08.088Z,-1.09
2022-12-18T18:28:35.715Z,-1.09
2022-12-18T18:31:07.049Z,-1.24
2022-12-18T18:33:34.037Z,-1.27
2022-12-18T18:36:00.910Z,-1.23
2022-12-18T18:38:29.032Z,-0.74
2022-12-18T18:41:03.422Z,-1.05
2022-12-18T18:43:30.755Z,-0.70
2022-12-18T18:46:02.637Z,-1.02
2022-12-18T18:48:33.185Z,-0.96
2022-12-18T18:51:14.672Z,-0.74
2022-12-18T18:53:50.321Z,-0.90
2022-12-18T18:59:05.266Z,-0.50
2022-12-18T19:01:32.384Z,-0.50
2022-12-18T19:03:58.941Z,-0.70
2022-12-18T19:06:27.297Z,-0.47
2022-12-18T19:08:55.902Z,0.16
2022-12-18T19:11:42.752Z,0.10
2022-12-18T19:14:12.580Z,0.03
2022-12-18T19:16:39.441Z,-0.25
2022-12-18T19:19:06.577Z,-0.65
2022-12-18T19:21:34.641Z,-0.49
2022-12-18T19:24:02.378Z,-0.46
2022-12-18T19:26:29.101Z,-0.25
2022-12-18T19:29:04.117Z,-0.07
2022-12-18T19:31:35.157Z,0.10
2022-12-18T19:34:03.012Z,0.02
2022-12-18T19:36:30.220Z,0.05
2022-12-18T19:38:59.340Z,-0.41
2022-12-18T19:41:27.576Z,-0.49
2022-12-18T19:43:57.634Z,-0.30
2022-12-18T19:46:24.244Z,-0.58
2022-12-18T19:48:51.615Z,-0.65
2022-12-18T19:51:24.706Z,-0.25
2022-12-18T19:53:56.651Z,-0.28
2022-12-18T19:56:27.164Z,-0.47
2022-12-18T19:58:54.543Z,-0.04
2022-12-18T20:01:23.102Z,-0.27
2022-12-18T20:03:52.700Z,-0.55
2022-12-18T20:06:29.914Z,-0.63
2022-12-18T20:09:00.430Z,-0.40
2022-12-18T20:11:28.520Z,-0.36
2022-12-18T20:13:54.948Z,-0.36
2022-12-18T20:16:21.414Z,-0.22
2022-12-18T20:18:48.217Z,-0.49
2022-12-18T20:21:14.868Z,-0.13
2022-12-18T20:23:42.022Z,0.36
2022-12-18T20:26:08.893Z,0.41
2022-12-18T20:28:35.589Z,0.16
2022-12-18T20:31:04.637Z,0.08
2022-12-18T20:33:31.449Z,0.03
2022-12-18T20:36:06.602Z,0.10
2022-12-18T20:38:35.165Z,0.11
2022-12-18T20:41:06.420Z,0.56
2022-12-18T20:43:32.892Z,0.55
2022-12-18T20:46:04.412Z,0.35
2022-12-18T20:48:31.566Z,0.40
2022-12-18T20:51:04.107Z,0.49
2022-12-18T20:53:31.184Z,0.62
2022-12-18T20:55:57.767Z,0.38
2022-12-18T20:58:24.759Z,-0.01
2022-12-18T21:01:02.164Z,0.13
2022-12-18T21:03:28.695Z,0.19
2022-12-18T21:05:55.179Z,0.26
2022-12-18T21:08:21.630Z,0.09
2022-12-18T21:10:48.044Z,-0.03
2022-12-18T21:13:14.619Z,0.43
2022-12-18T21:15:43.104Z,0.46
2022-12-18T21:18:09.509Z,0.28
2022-12-18T21:20:36.184Z,0.11
2022-12-18T21:23:05.852Z,0.59
2022-12-18T21:25:42.754Z,0.47
2022-12-18T21:28:09.187Z,0.15
2022-12-18T21:30:35.722Z,0.17
2022-12-18T21:33:02.170Z,-0.10
2022-12-18T21:35:28.612Z,0.36
2022-12-18T21:37:58.456Z,0.41
2022-12-18T21:40:25.071Z,0.35
2022-12-18T21:43:10.435Z,0.29
2022-12-18T21:45:40.416Z,0.19
2022-12-18T21:48:06.865Z,-0.11
2022-12-18T21:50:33.296Z,0.25
2022-12-18T21:52:59.997Z,-0.24
2022-12-18T21:55:26.467Z,0.15
2022-12-18T21:57:53.905Z,-0.11
2022-12-18T22:00:20.429Z,-0.16
2022-12-18T22:02:49.572Z,-0.09
2022-12-18T22:05:34.647Z,0.20
2022-12-18T22:08:01.511Z,0.34
2022-12-18T22:10:27.900Z,0.08
2022-12-18T22:12:55.021Z,0.24
2022-12-18T22:15:22.066Z,0.24
2022-12-18T22:17:50.549Z,0.72
2022-12-18T22:20:18.321Z,0.37
2022-12-18T22:22:47.023Z,0.13
2022-12-18T22:25:13.494Z,0.56
2022-12-18T22:27:40.013Z,0.94
2022-12-18T22:30:07.112Z,0.31
2022-12-18T22:32:35.518Z,0.97
2022-12-18T22:35:08.276Z,0.20
2022-12-18T22:37:37.253Z,0.70
2022-12-18T22:40:06.077Z,0.85
2022-12-18T22:42:34.053Z,1.19
2022-12-18T22:45:00.632Z,1.01
2022-12-18T22:47:30.187Z,0.65
2022-12-18T22:49:57.671Z,0.81
2022-12-18T22:52:25.034Z,0.38
2022-12-18T22:54:53.428Z,0.65
2022-12-18T22:57:20.302Z,0.55
2022-12-18T22:59:46.772Z,0.56
2022-12-18T23:02:13.249Z,1.06
2022-12-18T23:04:39.752Z,0.67
2022-12-18T23:07:06.746Z,0.60
2022-12-18T23:09:33.308Z,0.82
2022-12-18T23:12:00.297Z,0.75
2022-12-18T23:14:27.756Z,0.87
2022-12-18T23:16:54.186Z,0.87
2022-12-18T23:19:23.642Z,1.07
2022-12-18T23:21:51.249Z,1.00
2022-12-18T23:24:17.887Z,0.75
2022-12-18T23:26:44.355Z,0.90
2022-12-18T23:29:10.794Z,0.88
2022-12-18T23:31:39.132Z,1.05
2022-12-18T23:34:08.036Z,1.06
2022-12-18T23:36:37.626Z,0.98
2022-12-18T23:39:25.807Z,1.69
2022-12-18T23:41:56.110Z,1.31
2022-12-18T23:44:22.516Z,1.27
2022-12-18T23:46:49.064Z,0.90
2022-12-18T23:49:15.579Z,1.38
2022-12-18T23:51:41.982Z,1.38
2022-12-18T23:54:10.004Z,1.26
2022-12-18T23:56:36.466Z,1.33
2022-12-18T23:59:03.198Z,1.16
